Time;durP1;ratioP1;P1;durP2;ratioP2;P2;SDS_P1;SDS_P2;PMS_P1;PMS_P2;Temp;Humidity;BMP_temperature;BMP_pressure;BME280_temperature;BME280_humidity;BME280_pressure;Samples;Min_cycle;Max_cycle;Signal;HPM_P1;HPM_P2
2021/03/19 00:00:28;;;;;;;4.15;3.75;;;;;;;;;;4954331;29;20170;-79
2021/03/19 00:02:55;;;;;;;5.50;4.95;;;;;;;;;;4954194;29;20176;-79
2021/03/19 00:05:22;;;;;;;7.85;4.95;;;;;;;;;;4954192;29;20174;-79
2021/03/19 00:07:52;;;;;;;4.28;3.83;;;;;;;;;;4953998;29;20180;-79
2021/03/19 00:10:22;;;;;;;4.80;4.40;;;;;;;;;;4954031;29;20615;-79
2021/03/19 00:12:48;;;;;;;6.45;5.18;;;;;;;;;;4954402;29;20174;-80
2021/03/19 00:15:15;;;;;;;4.63;4.15;;;;;;;;;;4953915;29;20172;-79
2021/03/19 00:17:41;;;;;;;7.95;5.03;;;;;;;;;;4953574;29;20231;-78
2021/03/19 00:20:08;;;;;;;5.80;4.80;;;;;;;;;;4953980;29;20176;-78
2021/03/19 00:22:34;;;;;;;7.00;4.78;;;;;;;;;;4953756;29;20172;-78
2021/03/19 00:28:05;;;;;;;8.98;4.43;;;;;;;;;;4954024;29;20171;-79
2021/03/19 00:30:31;;;;;;;6.60;4.90;;;;;;;;;;4954033;29;20531;-79
2021/03/19 00:32:57;;;;;;;6.82;5.25;;;;;;;;;;4953678;29;20534;-79
2021/03/19 00:35:24;;;;;;;7.25;4.97;;;;;;;;;;4953893;29;20485;-80
2021/03/19 00:37:50;;;;;;;5.18;4.25;;;;;;;;;;4953131;29;20212;-79
2021/03/19 00:43:19;;;;;;;5.18;4.65;;;;;;;;;;4954201;29;20219;-79
2021/03/19 00:45:46;;;;;;;5.45;4.22;;;;;;;;;;4953660;29;20168;-80
2021/03/19 00:48:12;;;;;;;7.13;5.05;;;;;;;;;;4953705;29;20243;-79
2021/03/19 00:50:42;;;;;;;8.95;5.32;;;;;;;;;;4953582;29;20171;-78
2021/03/19 00:53:09;;;;;;;6.30;4.57;;;;;;;;;;4953672;29;20168;-78
2021/03/19 00:55:35;;;;;;;6.75;5.70;;;;;;;;;;4953522;29;20200;-78
2021/03/19 00:58:02;;;;;;;7.03;5.82;;;;;;;;;;4954496;28;20310;-79
2021/03/19 01:00:29;;;;;;;7.15;4.90;;;;;;;;;;4957131;29;20172;-79
2021/03/19 01:02:55;;;;;;;7.03;5.78;;;;;;;;;;4939627;29;20180;-79
2021/03/19 01:05:25;;;;;;;7.18;5.68;;;;;;;;;;4956997;29;20172;-78
2021/03/19 01:07:51;;;;;;;8.35;5.90;;;;;;;;;;4956862;29;20202;-79
2021/03/19 01:13:22;;;;;;;5.65;5.20;;;;;;;;;;4957158;29;20179;-78
2021/03/19 01:15:51;;;;;;;7.60;5.32;;;;;;;;;;4956922;29;20180;-79
2021/03/19 01:18:18;;;;;;;6.93;5.75;;;;;;;;;;4956534;29;20231;-80
2021/03/19 01:20:44;;;;;;;8.40;5.60;;;;;;;;;;4956940;29;20179;-80
2021/03/19 01:23:11;;;;;;;8.45;6.45;;;;;;;;;;4956739;29;20176;-80
2021/03/19 01:25:37;;;;;;;6.30;5.57;;;;;;;;;;4956770;29;20167;-78
2021/03/19 01:28:03;;;;;;;8.60;5.40;;;;;;;;;;4956724;29;20227;-79
2021/03/19 01:30:31;;;;;;;5.85;5.35;;;;;;;;;;4956692;29;20168;-79
2021/03/19 01:32:58;;;;;;;6.03;5.15;;;;;;;;;;4956449;29;20647;-79
2021/03/19 01:35:24;;;;;;;6.07;5.47;;;;;;;;;;4956527;29;20175;-79
2021/03/19 01:37:51;;;;;;;6.30;4.70;;;;;;;;;;4938976;29;20475;-80
2021/03/19 01:43:22;;;;;;;7.60;6.80;;;;;;;;;;4956739;29;20530;-79
2021/03/19 01:46:07;;;;;;;6.20;5.35;;;;;;;;;;4956446;29;20179;-79
2021/03/19 01:48:51;;;;;;;6.40;5.70;;;;;;;;;;4956519;29;20183;-79
2021/03/19 01:51:36;;;;;;;11.68;6.35;;;;;;;;;;4939175;29;20539;-80
2021/03/19 01:54:21;;;;;;;7.72;5.47;;;;;;;;;;4956181;29;20180;-79
2021/03/19 01:57:05;;;;;;;7.82;7.00;;;;;;;;;;4938736;29;20195;-79
2021/03/19 01:59:50;;;;;;;6.65;6.05;;;;;;;;;;4956112;29;20171;-80
2021/03/19 02:02:34;;;;;;;8.48;6.40;;;;;;;;;;4955944;29;20172;-79
2021/03/19 02:05:19;;;;;;;7.40;5.90;;;;;;;;;;4956013;29;20223;-79
2021/03/19 02:08:03;;;;;;;7.88;7.07;;;;;;;;;;4955860;29;20238;-78
2021/03/19 02:10:48;;;;;;;6.85;6.25;;;;;;;;;;4954851;28;20703;-79
2021/03/19 02:13:32;;;;;;;10.98;6.00;;;;;;;;;;4955896;29;20235;-79
2021/03/19 02:16:17;;;;;;;9.82;7.60;;;;;;;;;;4955548;28;20163;-79
2021/03/19 02:19:01;;;;;;;9.07;6.57;;;;;;;;;;4955683;29;20211;-79
2021/03/19 02:21:46;;;;;;;8.25;5.80;;;;;;;;;;4955649;29;20171;-78
2021/03/19 02:27:34;;;;;;;9.05;6.25;;;;;;;;;;4955862;29;20218;-79
2021/03/19 02:30:18;;;;;;;7.82;6.95;;;;;;;;;;4955448;29;20607;-78
2021/03/19 02:32:44;;;;;;;8.60;7.13;;;;;;;;;;4955114;29;20176;-78
2021/03/19 02:35:10;;;;;;;15.37;8.87;;;;;;;;;;4955448;29;20171;-78
2021/03/19 02:37:37;;;;;;;8.98;6.72;;;;;;;;;;4955224;29;20558;-78
2021/03/19 02:43:07;;;;;;;8.00;6.60;;;;;;;;;;4955831;29;20251;-79
2021/03/19 02:45:33;;;;;;;10.23;6.73;;;;;;;;;;4955273;29;20179;-80
2021/03/19 02:47:59;;;;;;;8.10;6.47;;;;;;;;;;4955048;29;20408;-78
2021/03/19 02:50:25;;;;;;;9.13;7.53;;;;;;;;;;4955991;29;20415;-78
2021/03/19 02:52:51;;;;;;;8.40;7.53;;;;;;;;;;4955471;29;20551;-78
2021/03/19 02:58:20;;;;;;;7.32;6.22;;;;;;;;;;4955454;29;20466;-78
2021/03/19 03:00:46;;;;;;;14.48;8.30;;;;;;;;;;4955517;29;20255;-79
2021/03/19 03:03:12;;;;;;;10.30;7.45;;;;;;;;;;4955299;29;20176;-79
2021/03/19 03:05:38;;;;;;;8.50;7.60;;;;;;;;;;4955435;29;20168;-79
2021/03/19 03:08:05;;;;;;;8.50;7.45;;;;;;;;;;4955224;29;20180;-79
2021/03/19 03:13:35;;;;;;;8.90;6.90;;;;;;;;;;4955546;29;20645;-78
2021/03/19 03:16:02;;;;;;;7.88;7.07;;;;;;;;;;4955295;29;20167;-79
2021/03/19 03:18:28;;;;;;;7.95;7.18;;;;;;;;;;4954935;29;20273;-79
2021/03/19 03:20:55;;;;;;;8.32;7.30;;;;;;;;;;4954895;28;20619;-79
2021/03/19 03:23:22;;;;;;;10.00;8.27;;;;;;;;;;4955051;29;20176;-78
2021/03/19 03:28:52;;;;;;;7.70;6.75;;;;;;;;;;4955674;29;20584;-79
2021/03/19 03:31:18;;;;;;;8.77;7.70;;;;;;;;;;4955349;29;20235;-80
2021/03/19 03:33:44;;;;;;;10.13;8.00;;;;;;;;;;4954970;29;20180;-78
2021/03/19 03:36:10;;;;;;;9.90;8.20;;;;;;;;;;4955199;29;20506;-79
2021/03/19 03:38:36;;;;;;;11.23;8.45;;;;;;;;;;4954796;29;20372;-79
2021/03/19 03:44:05;;;;;;;13.10;7.72;;;;;;;;;;4955052;29;20409;-78
2021/03/19 03:46:31;;;;;;;9.10;7.45;;;;;;;;;;4954964;29;20263;-80
2021/03/19 03:48:58;;;;;;;8.98;8.07;;;;;;;;;;4954688;29;20175;-79
2021/03/19 03:51:25;;;;;;;11.30;8.57;;;;;;;;;;4954569;29;20238;-79
2021/03/19 03:53:51;;;;;;;9.23;7.72;;;;;;;;;;4954864;29;20177;-79
2021/03/19 03:56:18;;;;;;;12.82;8.95;;;;;;;;;;4954846;29;20199;-79
2021/03/19 03:58:44;;;;;;;10.10;7.72;;;;;;;;;;4954798;29;20309;-79
2021/03/19 04:01:10;;;;;;;10.32;9.13;;;;;;;;;;4954684;29;20218;-79
2021/03/19 04:03:37;;;;;;;11.10;8.48;;;;;;;;;;4954968;29;20535;-79
2021/03/19 04:06:03;;;;;;;9.23;7.95;;;;;;;;;;4954899;29;20275;-78
2021/03/19 04:08:30;;;;;;;11.88;8.55;;;;;;;;;;4954769;29;20172;-79
2021/03/19 04:13:59;;;;;;;11.00;9.65;;;;;;;;;;4954584;29;20171;-78
2021/03/19 04:16:26;;;;;;;12.83;9.37;;;;;;;;;;4954464;29;20230;-79
2021/03/19 04:18:52;;;;;;;10.25;8.23;;;;;;;;;;4954578;29;20965;-79
2021/03/19 04:21:18;;;;;;;9.13;8.17;;;;;;;;;;4954695;29;20174;-79
2021/03/19 04:23:47;;;;;;;9.20;8.00;;;;;;;;;;4954738;29;20423;-79
2021/03/19 04:29:17;;;;;;;11.73;9.30;;;;;;;;;;4955151;29;20267;-79
2021/03/19 04:31:43;;;;;;;10.63;8.80;;;;;;;;;;4954721;28;20203;-78
2021/03/19 04:34:09;;;;;;;12.30;9.33;;;;;;;;;;4958142;29;20422;-78
2021/03/19 04:36:41;;;;;;;9.63;8.17;;;;;;;;;;4957873;29;20414;-79
2021/03/19 04:39:10;;;;;;;9.77;8.77;;;;;;;;;;4957930;29;20479;-78
2021/03/19 04:41:37;;;;;;;9.82;8.80;;;;;;;;;;4957913;29;20168;-78
2021/03/19 04:44:04;;;;;;;9.90;8.90;;;;;;;;;;4957800;29;20661;-78
2021/03/19 04:46:30;;;;;;;11.30;8.95;;;;;;;;;;4957812;29;20174;-79
2021/03/19 04:48:57;;;;;;;11.02;9.90;;;;;;;;;;4957746;29;20190;-79
2021/03/19 04:51:23;;;;;;;11.88;9.38;;;;;;;;;;4957678;29;20251;-79
2021/03/19 04:53:49;;;;;;;11.02;9.30;;;;;;;;;;4957763;29;20168;-79
2021/03/19 04:59:18;;;;;;;11.40;8.77;;;;;;;;;;4957540;29;20247;-79
2021/03/19 05:01:55;;;;;;;11.05;9.30;;;;;;;;;;4957620;29;20203;-78
2021/03/19 05:04:22;;;;;;;11.25;8.85;;;;;;;;;;4957490;29;20184;-78
2021/03/19 05:06:49;;;;;;;10.30;9.00;;;;;;;;;;4940186;29;20180;-79
2021/03/19 05:09:15;;;;;;;13.48;9.98;;;;;;;;;;4957426;29;20172;-79
2021/03/19 05:11:41;;;;;;;14.32;10.07;;;;;;;;;;4957372;29;20180;-79
2021/03/19 05:14:07;;;;;;;10.37;9.27;;;;;;;;;;4957281;29;20219;-80
2021/03/19 05:16:33;;;;;;;11.40;9.60;;;;;;;;;;4957320;29;20475;-80
2021/03/19 05:18:59;;;;;;;9.68;8.55;;;;;;;;;;4957136;29;20471;-80
2021/03/19 05:21:25;;;;;;;11.83;9.13;;;;;;;;;;4957098;29;20231;-79
2021/03/19 05:23:51;;;;;;;9.52;8.02;;;;;;;;;;4957037;29;20427;-79
2021/03/19 05:29:21;;;;;;;18.73;8.77;;;;;;;;;;4957475;29;20170;-81
2021/03/19 05:31:47;;;;;;;10.33;8.30;;;;;;;;;;4956861;29;20172;-79
2021/03/19 05:34:13;;;;;;;9.68;8.68;;;;;;;;;;4956968;29;20454;-80
2021/03/19 05:36:39;;;;;;;10.60;7.43;;;;;;;;;;4957035;29;20281;-79
2021/03/19 05:39:06;;;;;;;8.77;7.88;;;;;;;;;;4956822;29;20215;-78
2021/03/19 05:44:36;;;;;;;9.77;8.52;;;;;;;;;;4956479;28;20686;-80
2021/03/19 05:47:03;;;;;;;10.00;8.10;;;;;;;;;;4956424;29;20180;-78
2021/03/19 05:49:31;;;;;;;10.23;8.23;;;;;;;;;;4956740;29;20962;-82
2021/03/19 05:51:59;;;;;;;10.50;8.40;;;;;;;;;;4956475;29;20176;-80
2021/03/19 05:54:44;;;;;;;10.10;8.35;;;;;;;;;;4939299;29;20546;-80
2021/03/19 05:57:25;;;;;;;14.23;8.80;;;;;;;;;;4939364;29;20215;-80
2021/03/19 05:59:52;;;;;;;13.30;8.35;;;;;;;;;;4956677;29;20215;-80
2021/03/19 06:02:27;;;;;;;10.85;8.10;;;;;;;;;;4956320;29;20171;-78
2021/03/19 06:05:11;;;;;;;10.23;8.95;;;;;;;;;;4956508;29;20187;-79
2021/03/19 06:07:42;;;;;;;11.55;9.63;;;;;;;;;;4956380;29;20171;-80
2021/03/19 06:10:15;;;;;;;11.32;8.68;;;;;;;;;;4956734;29;20211;-82
2021/03/19 06:12:41;;;;;;;9.73;8.60;;;;;;;;;;4956661;29;20611;-79
2021/03/19 06:15:22;;;;;;;8.93;8.02;;;;;;;;;;4956421;29;20176;-81
2021/03/19 06:17:52;;;;;;;10.73;9.02;;;;;;;;;;4956356;29;20254;-81
2021/03/19 06:20:18;;;;;;;10.60;9.15;;;;;;;;;;4948856;29;20262;-80
2021/03/19 06:22:57;;;;;;;10.00;9.02;;;;;;;;;;4957123;29;20204;-80
2021/03/19 06:25:25;;;;;;;9.02;8.15;;;;;;;;;;4956580;29;20170;-81
2021/03/19 06:27:59;;;;;;;11.88;8.73;;;;;;;;;;4955977;29;20282;-73
2021/03/19 06:30:25;;;;;;;11.70;8.07;;;;;;;;;;4955967;29;20181;-72
2021/03/19 06:33:03;;;;;;;13.05;9.38;;;;;;;;;;4956056;29;20179;-72
2021/03/19 06:35:34;;;;;;;11.63;9.20;;;;;;;;;;4956050;29;20171;-73
2021/03/19 06:38:23;;;;;;;9.27;8.30;;;;;;;;;;4955922;29;20318;-79
2021/03/19 06:40:49;;;;;;;11.73;9.75;;;;;;;;;;4950455;29;20527;-79
2021/03/19 06:43:19;;;;;;;10.90;9.80;;;;;;;;;;4938698;29;20172;-79
2021/03/19 06:45:49;;;;;;;14.77;10.27;;;;;;;;;;4955751;29;20256;-79
2021/03/19 06:48:28;;;;;;;18.13;9.32;;;;;;;;;;4955672;29;20189;-80
2021/03/19 06:50:55;;;;;;;12.50;9.93;;;;;;;;;;4955788;29;20640;-83
2021/03/19 06:53:23;;;;;;;11.20;8.90;;;;;;;;;;4955841;29;20255;-80
2021/03/19 06:55:52;;;;;;;10.98;9.55;;;;;;;;;;4955095;28;20453;-79
2021/03/19 06:58:33;;;;;;;11.15;9.80;;;;;;;;;;4955404;29;20295;-79
2021/03/19 07:00:59;;;;;;;10.30;9.20;;;;;;;;;;4956111;29;20166;-78
2021/03/19 07:03:38;;;;;;;11.48;10.32;;;;;;;;;;4952990;29;20529;-79
2021/03/19 07:06:10;;;;;;;12.20;10.90;;;;;;;;;;4954094;29;20278;-79
2021/03/19 07:08:39;;;;;;;14.57;9.75;;;;;;;;;;4954289;29;20179;-80
2021/03/19 07:11:30;;;;;;;13.70;9.93;;;;;;;;;;4954535;29;20635;-82
2021/03/19 07:14:14;;;;;;;14.45;10.38;;;;;;;;;;4957308;29;20176;-82
2021/03/19 07:16:46;;;;;;;18.33;10.93;;;;;;;;;;4954376;29;20231;-79
2021/03/19 07:19:26;;;;;;;14.38;10.02;;;;;;;;;;4953907;29;20257;-79
2021/03/19 07:22:11;;;;;;;16.55;10.02;;;;;;;;;;4953751;29;20297;-80
2021/03/19 07:27:54;;;;;;;12.52;10.10;;;;;;;;;;4953889;29;20187;-80
2021/03/19 07:30:32;;;;;;;13.07;10.27;;;;;;;;;;4953709;29;20748;-79
2021/03/19 07:32:58;;;;;;;12.45;9.63;;;;;;;;;;4953743;29;20180;-79
2021/03/19 07:35:39;;;;;;;15.90;10.87;;;;;;;;;;4953608;29;20227;-79
2021/03/19 07:38:23;;;;;;;12.60;11.30;;;;;;;;;;4953392;29;20546;-80
2021/03/19 07:44:11;;;;;;;12.25;10.27;;;;;;;;;;4953896;29;20718;-80
2021/03/19 07:46:40;;;;;;;12.00;10.70;;;;;;;;;;4953739;29;20421;-80
2021/03/19 07:49:06;;;;;;;13.00;10.30;;;;;;;;;;4953549;29;20168;-83
2021/03/19 07:51:46;;;;;;;14.90;11.05;;;;;;;;;;4953533;29;20612;-79
2021/03/19 07:54:15;;;;;;;16.17;12.05;;;;;;;;;;4953888;29;20279;-81
2021/03/19 07:59:45;;;;;;;13.80;11.85;;;;;;;;;;4953995;29;20258;-79
2021/03/19 08:02:29;;;;;;;14.25;11.75;;;;;;;;;;4953305;29;20754;-82
2021/03/19 08:05:06;;;;;;;13.27;10.82;;;;;;;;;;4953278;29;20582;-79
2021/03/19 08:07:45;;;;;;;12.18;10.32;;;;;;;;;;4957111;28;20175;-80
2021/03/19 08:10:23;;;;;;;14.95;11.90;;;;;;;;;;4959541;29;20493;-85
2021/03/19 08:12:58;;;;;;;14.10;12.15;;;;;;;;;;4943042;29;20176;-80
2021/03/19 08:15:27;;;;;;;14.80;12.32;;;;;;;;;;4962135;29;20164;-79
2021/03/19 08:17:58;;;;;;;14.00;11.77;;;;;;;;;;4958565;29;20302;-84
2021/03/19 08:20:32;;;;;;;16.48;12.57;;;;;;;;;;5290621;23;20596;-83
2021/03/19 08:23:21;;;;;;;12.70;11.05;;;;;;;;;;4961240;28;20933;-82
2021/03/19 08:25:48;;;;;;;12.55;10.55;;;;;;;;;;4958916;28;20569;-83
2021/03/19 08:28:33;;;;;;;11.57;9.70;;;;;;;;;;4971237;28;20189;-81
2021/03/19 08:31:29;;;;;;;13.48;8.50;;;;;;;;;;4971837;28;20598;-83
2021/03/19 08:34:01;;;;;;;9.98;8.52;;;;;;;;;;4952901;28;20287;-80
2021/03/19 08:36:42;;;;;;;10.65;8.85;;;;;;;;;;4970794;28;20222;-81
2021/03/19 08:39:14;;;;;;;9.15;7.93;;;;;;;;;;4972726;28;20212;-82
2021/03/19 08:41:42;;;;;;;9.23;6.75;;;;;;;;;;4971049;28;20205;-78
2021/03/19 08:44:12;;;;;;;7.93;6.78;;;;;;;;;;4970544;28;20199;-80
2021/03/19 08:46:41;;;;;;;8.05;6.68;;;;;;;;;;4971029;28;20632;-83
2021/03/19 08:49:13;;;;;;;12.00;7.55;;;;;;;;;;4971171;28;20257;-82
2021/03/19 08:51:42;;;;;;;7.55;6.85;;;;;;;;;;4971217;28;20236;-83
2021/03/19 08:54:15;;;;;;;8.60;7.32;;;;;;;;;;4976641;28;20635;-81
2021/03/19 08:56:46;;;;;;;11.18;7.88;;;;;;;;;;4971663;28;20187;-78
2021/03/19 08:59:32;;;;;;;9.18;8.05;;;;;;;;;;4971095;28;20270;-78
2021/03/19 09:02:00;;;;;;;8.35;7.55;;;;;;;;;;4970737;28;20665;-78
2021/03/19 09:04:44;;;;;;;8.65;7.75;;;;;;;;;;4971549;28;20184;-80
2021/03/19 09:07:29;;;;;;;9.82;7.63;;;;;;;;;;4970782;28;20568;-79
2021/03/19 09:10:00;;;;;;;11.48;8.35;;;;;;;;;;4970665;28;20250;-79
2021/03/19 09:12:32;;;;;;;12.63;9.45;;;;;;;;;;4970587;28;20188;-79
2021/03/19 09:15:16;;;;;;;11.82;9.65;;;;;;;;;;4952629;28;20662;-81
2021/03/19 09:17:51;;;;;;;12.70;8.75;;;;;;;;;;4956356;28;20302;-80
2021/03/19 09:20:23;;;;;;;14.43;8.98;;;;;;;;;;4964477;28;20268;-79
2021/03/19 09:23:03;;;;;;;12.65;8.00;;;;;;;;;;4967148;28;20278;-78
2021/03/19 09:25:55;;;;;;;10.05;7.43;;;;;;;;;;4969167;28;20187;-84
2021/03/19 09:28:25;;;;;;;14.30;8.27;;;;;;;;;;4965287;28;20202;-82
2021/03/19 09:30:55;;;;;;;9.23;7.88;;;;;;;;;;4967838;28;20203;-74
2021/03/19 09:33:39;;;;;;;13.05;8.10;;;;;;;;;;4968135;28;20194;-77
2021/03/19 09:36:05;;;;;;;15.30;7.75;;;;;;;;;;4970869;28;20278;-77
2021/03/19 09:38:31;;;;;;;8.50;7.47;;;;;;;;;;4970141;28;20227;-77
2021/03/19 09:41:02;;;;;;;16.00;9.00;;;;;;;;;;4970218;28;20345;-79
2021/03/19 09:43:38;;;;;;;13.68;9.52;;;;;;;;;;4952350;28;20452;-74
2021/03/19 09:46:18;;;;;;;15.05;9.75;;;;;;;;;;4971030;28;20193;-78
2021/03/19 09:48:55;;;;;;;11.85;9.60;;;;;;;;;;4970317;28;20179;-77
2021/03/19 09:51:30;;;;;;;11.75;9.00;;;;;;;;;;4970005;28;20227;-77
2021/03/19 09:53:56;;;;;;;12.75;8.57;;;;;;;;;;4970282;28;20198;-80
2021/03/19 09:56:25;;;;;;;11.52;9.57;;;;;;;;;;4969019;28;20187;-78
2021/03/19 09:58:52;;;;;;;12.15;8.60;;;;;;;;;;4968278;28;20235;-79
2021/03/19 10:01:33;;;;;;;9.57;7.63;;;;;;;;;;4970106;28;20630;-79
2021/03/19 10:04:03;;;;;;;12.88;8.95;;;;;;;;;;4969212;28;20194;-78
2021/03/19 10:06:31;;;;;;;11.00;8.93;;;;;;;;;;4973707;28;20195;-78
2021/03/19 10:09:23;;;;;;;9.50;8.35;;;;;;;;;;4976386;28;20268;-78
2021/03/19 10:12:00;;;;;;;14.07;10.25;;;;;;;;;;4975333;28;20205;-77
2021/03/19 10:14:32;;;;;;;12.40;8.95;;;;;;;;;;4959065;28;20230;-77
2021/03/19 10:17:19;;;;;;;11.15;7.07;;;;;;;;;;4977123;28;20208;-79
2021/03/19 10:19:50;;;;;;;10.75;8.10;;;;;;;;;;4931425;28;20209;-79
2021/03/19 10:22:38;;;;;;;9.88;8.43;;;;;;;;;;4977378;28;21669;-78
2021/03/19 10:25:23;;;;;;;9.45;7.80;;;;;;;;;;4977184;28;20200;-79
2021/03/19 10:27:50;;;;;;;9.20;7.50;;;;;;;;;;4979320;28;20179;-78
2021/03/19 10:30:35;;;;;;;9.40;7.28;;;;;;;;;;4964669;28;20264;-80
2021/03/19 10:33:09;;;;;;;7.70;6.90;;;;;;;;;;4931880;28;20275;-80
2021/03/19 10:35:37;;;;;;;8.10;6.67;;;;;;;;;;4967606;28;20445;-79
2021/03/19 10:38:15;;;;;;;11.80;6.70;;;;;;;;;;4969093;28;20482;-82
2021/03/19 10:40:44;;;;;;;9.30;6.03;;;;;;;;;;4969097;28;21027;-81
2021/03/19 10:43:19;;;;;;;5.97;5.37;;;;;;;;;;4967769;28;20446;-84
2021/03/19 10:45:58;;;;;;;6.70;5.43;;;;;;;;;;4970609;28;20492;-82
2021/03/19 10:48:27;;;;;;;5.17;4.77;;;;;;;;;;4973156;28;20450;-78
2021/03/19 10:50:59;;;;;;;5.90;5.30;;;;;;;;;;4971319;28;20454;-82
2021/03/19 10:53:45;;;;;;;6.47;5.57;;;;;;;;;;4972121;28;20434;-82
2021/03/19 10:56:12;;;;;;;7.57;6.83;;;;;;;;;;4981047;28;20453;-79
2021/03/19 10:58:40;;;;;;;6.10;5.60;;;;;;;;;;4981116;28;20477;-80
2021/03/19 11:01:25;;;;;;;6.07;5.57;;;;;;;;;;4978760;28;20848;-80
2021/03/19 11:03:51;;;;;;;8.23;6.13;;;;;;;;;;4962117;28;20435;-79
2021/03/19 11:06:34;;;;;;;6.27;5.67;;;;;;;;;;4979995;28;20448;-79
2021/03/19 11:09:10;;;;;;;7.90;4.50;;;;;;;;;;4984266;28;20471;-80
2021/03/19 11:11:37;;;;;;;5.40;4.63;;;;;;;;;;4968687;28;20950;-79
2021/03/19 11:14:04;;;;;;;8.20;6.10;;;;;;;;;;4969105;28;20471;-80
2021/03/19 11:16:33;;;;;;;6.03;5.43;;;;;;;;;;4973334;28;20445;-79
2021/03/19 11:19:10;;;;;;;6.60;5.50;;;;;;;;;;4970640;28;20568;-80
2021/03/19 11:21:37;;;;;;;5.27;4.43;;;;;;;;;;4969511;28;20542;-80
2021/03/19 11:24:06;;;;;;;5.80;4.70;;;;;;;;;;4975715;28;20481;-80
2021/03/19 11:26:34;;;;;;;5.97;5.37;;;;;;;;;;4976733;28;20431;-80
2021/03/19 11:29:22;;;;;;;5.67;5.07;;;;;;;;;;4982757;28;20442;-80
2021/03/19 11:31:54;;;;;;;4.90;4.40;;;;;;;;;;4979683;28;20798;-77
2021/03/19 11:34:35;;;;;;;4.75;4.22;;;;;;;;;;4980540;28;20442;-79
2021/03/19 11:37:03;;;;;;;6.60;4.28;;;;;;;;;;4977964;28;20293;-77
2021/03/19 11:39:53;;;;;;;5.50;4.95;;;;;;;;;;4979668;28;20205;-79
2021/03/19 11:42:20;;;;;;;6.40;4.32;;;;;;;;;;4979498;28;20535;-79
2021/03/19 11:44:47;;;;;;;4.50;4.10;;;;;;;;;;4979389;28;20178;-80
2021/03/19 11:47:19;;;;;;;5.05;4.38;;;;;;;;;;4978447;28;20210;-79
2021/03/19 11:49:46;;;;;;;5.07;3.95;;;;;;;;;;4958487;28;20204;-78
2021/03/19 11:52:13;;;;;;;4.85;3.90;;;;;;;;;;4961406;28;20403;-76
2021/03/19 11:54:40;;;;;;;4.35;3.95;;;;;;;;;;4964092;28;20187;-76
2021/03/19 11:57:07;;;;;;;4.68;3.60;;;;;;;;;;4962500;28;20191;-78
2021/03/19 11:59:33;;;;;;;5.85;4.70;;;;;;;;;;4963991;28;20252;-77
2021/03/19 12:02:02;;;;;;;4.80;4.30;;;;;;;;;;4964306;28;20189;-78
2021/03/19 12:04:28;;;;;;;5.72;4.07;;;;;;;;;;4965692;28;20191;-76
2021/03/19 12:06:54;;;;;;;6.13;4.35;;;;;;;;;;4965475;28;21347;-77
2021/03/19 12:09:20;;;;;;;4.90;4.10;;;;;;;;;;4965067;28;20896;-77
2021/03/19 12:11:47;;;;;;;5.57;4.55;;;;;;;;;;4962139;28;20460;-77
2021/03/19 12:14:17;;;;;;;5.93;4.32;;;;;;;;;;4966128;28;20184;-76
2021/03/19 12:16:44;;;;;;;5.82;4.85;;;;;;;;;;4964222;28;20275;-77
2021/03/19 12:19:10;;;;;;;5.20;4.70;;;;;;;;;;4966066;28;20212;-77
2021/03/19 12:21:36;;;;;;;6.32;5.18;;;;;;;;;;4964072;28;20314;-78
2021/03/19 12:24:03;;;;;;;6.25;5.10;;;;;;;;;;4962760;28;20536;-78
2021/03/19 12:26:29;;;;;;;8.38;5.93;;;;;;;;;;4964447;28;20208;-77
2021/03/19 12:28:55;;;;;;;7.27;5.87;;;;;;;;;;4965269;28;20730;-77
2021/03/19 12:31:21;;;;;;;8.07;5.63;;;;;;;;;;4965863;28;20457;-78
2021/03/19 12:33:47;;;;;;;7.55;6.78;;;;;;;;;;4964220;28;20204;-76
2021/03/19 12:36:13;;;;;;;7.78;5.35;;;;;;;;;;4946050;28;20195;-76
2021/03/19 12:38:39;;;;;;;5.93;5.10;;;;;;;;;;4964759;28;20281;-77
2021/03/19 12:41:05;;;;;;;6.28;5.45;;;;;;;;;;4965896;28;20198;-79
2021/03/19 12:43:32;;;;;;;7.35;6.40;;;;;;;;;;4966125;28;20193;-78
2021/03/19 12:45:58;;;;;;;7.32;6.30;;;;;;;;;;4964900;28;20193;-77
2021/03/19 12:48:24;;;;;;;11.55;5.55;;;;;;;;;;4966078;28;20258;-75
2021/03/19 12:50:50;;;;;;;6.82;6.22;;;;;;;;;;4965190;28;20218;-77
2021/03/19 12:53:18;;;;;;;7.30;6.00;;;;;;;;;;4965224;28;20222;-77
2021/03/19 12:55:44;;;;;;;8.98;6.35;;;;;;;;;;4968252;28;20195;-77
2021/03/19 12:58:11;;;;;;;7.85;6.25;;;;;;;;;;4968581;28;20287;-77
2021/03/19 13:00:37;;;;;;;9.23;6.55;;;;;;;;;;4969164;28;20194;-76
2021/03/19 13:03:04;;;;;;;8.50;7.20;;;;;;;;;;4968277;28;20197;-75
2021/03/19 13:05:30;;;;;;;8.88;6.65;;;;;;;;;;4970274;28;20254;-78
2021/03/19 13:07:57;;;;;;;10.98;6.97;;;;;;;;;;4971716;28;20271;-77
2021/03/19 13:10:24;;;;;;;9.43;7.45;;;;;;;;;;4972534;28;20550;-76
2021/03/19 13:12:50;;;;;;;10.68;8.18;;;;;;;;;;4977327;28;20274;-78
2021/03/19 13:15:17;;;;;;;9.13;7.60;;;;;;;;;;4960722;28;20183;-76
2021/03/19 13:17:43;;;;;;;12.18;8.85;;;;;;;;;;4977864;28;20203;-77
2021/03/19 13:20:11;;;;;;;13.05;8.80;;;;;;;;;;4979016;28;20672;-77
2021/03/19 13:22:38;;;;;;;10.80;8.85;;;;;;;;;;4974265;28;20253;-77
2021/03/19 13:25:06;;;;;;;12.18;8.50;;;;;;;;;;4975044;28;20243;-77
2021/03/19 13:27:32;;;;;;;12.60;9.48;;;;;;;;;;4973434;28;20195;-76
2021/03/19 13:29:58;;;;;;;10.85;8.70;;;;;;;;;;4970961;28;20187;-77
2021/03/19 13:32:24;;;;;;;13.67;9.77;;;;;;;;;;4973088;28;20626;-76
2021/03/19 13:34:50;;;;;;;13.73;10.30;;;;;;;;;;4972776;28;20438;-77
2021/03/19 13:37:16;;;;;;;14.43;9.95;;;;;;;;;;4972468;28;20188;-77
2021/03/19 13:39:42;;;;;;;12.97;9.63;;;;;;;;;;4972703;28;20242;-79
2021/03/19 13:42:08;;;;;;;12.37;9.33;;;;;;;;;;4955031;28;20451;-77
2021/03/19 13:44:35;;;;;;;16.88;10.18;;;;;;;;;;4955358;28;20581;-77
2021/03/19 13:47:02;;;;;;;13.50;9.07;;;;;;;;;;4972774;28;20183;-76
2021/03/19 13:49:30;;;;;;;15.60;10.65;;;;;;;;;;4955724;28;20195;-77
2021/03/19 13:51:56;;;;;;;15.38;10.43;;;;;;;;;;4972391;28;20513;-77
2021/03/19 13:54:22;;;;;;;13.52;10.30;;;;;;;;;;4972567;28;20291;-78
2021/03/19 13:56:48;;;;;;;13.88;10.15;;;;;;;;;;4955462;28;20191;-79
2021/03/19 13:59:14;;;;;;;13.10;9.10;;;;;;;;;;4973044;28;20224;-77
2021/03/19 14:01:40;;;;;;;13.43;9.20;;;;;;;;;;4972507;28;20444;-78
2021/03/19 14:04:08;;;;;;;15.38;9.80;;;;;;;;;;4972314;28;20451;-76
2021/03/19 14:06:39;;;;;;;12.80;9.40;;;;;;;;;;4971706;28;20195;-76
2021/03/19 14:09:06;;;;;;;14.63;11.50;;;;;;;;;;4971902;28;20203;-77
2021/03/19 14:11:32;;;;;;;14.73;10.15;;;;;;;;;;4972776;28;20279;-78
2021/03/19 14:13:58;;;;;;;12.30;9.52;;;;;;;;;;4972183;28;20184;-77
2021/03/19 14:16:24;;;;;;;13.95;9.43;;;;;;;;;;4972890;28;20203;-79
2021/03/19 14:18:50;;;;;;;13.48;8.77;;;;;;;;;;4970728;28;20219;-79
2021/03/19 14:21:17;;;;;;;11.50;8.43;;;;;;;;;;4971352;28;20232;-79
2021/03/19 14:23:43;;;;;;;15.05;9.70;;;;;;;;;;4969382;28;20482;-79
2021/03/19 14:26:09;;;;;;;14.20;9.70;;;;;;;;;;4972820;28;20197;-78
2021/03/19 14:28:37;;;;;;;14.35;10.52;;;;;;;;;;4972068;28;20558;-76
2021/03/19 14:31:03;;;;;;;13.07;9.52;;;;;;;;;;4971579;28;20242;-76
2021/03/19 14:33:29;;;;;;;13.18;10.30;;;;;;;;;;4972339;28;20607;-78
2021/03/19 14:35:56;;;;;;;13.45;8.63;;;;;;;;;;4970504;28;20257;-78
2021/03/19 14:38:22;;;;;;;14.77;11.32;;;;;;;;;;4971467;28;20901;-78
2021/03/19 14:40:50;;;;;;;14.35;10.48;;;;;;;;;;4971926;28;20638;-76
2021/03/19 14:43:16;;;;;;;12.90;9.27;;;;;;;;;;4973917;28;20219;-78
2021/03/19 14:45:43;;;;;;;13.02;9.38;;;;;;;;;;4974457;28;20183;-77
2021/03/19 14:48:09;;;;;;;14.80;10.73;;;;;;;;;;4972941;28;20255;-80
2021/03/19 14:50:39;;;;;;;21.92;11.18;;;;;;;;;;4971660;28;20606;-77
2021/03/19 14:53:07;;;;;;;11.93;8.63;;;;;;;;;;4972102;28;20707;-78
2021/03/19 14:55:33;;;;;;;14.35;10.00;;;;;;;;;;4972364;28;20195;-77
2021/03/19 14:58:00;;;;;;;13.77;8.73;;;;;;;;;;4972365;28;20686;-76
2021/03/19 15:00:36;;;;;;;15.75;9.50;;;;;;;;;;4972283;28;20208;-77
2021/03/19 15:03:02;;;;;;;11.43;8.25;;;;;;;;;;4974967;28;20181;-77
2021/03/19 15:05:28;;;;;;;10.68;6.95;;;;;;;;;;4977904;28;20192;-77
2021/03/19 15:07:55;;;;;;;9.95;7.20;;;;;;;;;;4977918;28;20183;-77
2021/03/19 15:10:23;;;;;;;10.05;6.63;;;;;;;;;;4977552;28;20523;-77
2021/03/19 15:12:49;;;;;;;7.80;5.50;;;;;;;;;;4976461;28;20190;-77
2021/03/19 15:15:16;;;;;;;9.70;6.50;;;;;;;;;;4975365;28;20187;-77
2021/03/19 15:17:42;;;;;;;8.93;6.57;;;;;;;;;;4967064;28;20213;-78
2021/03/19 15:20:09;;;;;;;7.55;5.50;;;;;;;;;;4963677;28;20283;-78
2021/03/19 15:22:38;;;;;;;11.70;6.53;;;;;;;;;;4966185;28;20298;-77
2021/03/19 15:25:05;;;;;;;7.45;5.55;;;;;;;;;;4967821;28;20223;-77
2021/03/19 15:27:31;;;;;;;7.38;4.68;;;;;;;;;;4949610;28;20250;-77
2021/03/19 15:29:57;;;;;;;7.67;5.07;;;;;;;;;;4965937;28;20206;-78
2021/03/19 15:32:24;;;;;;;6.20;4.80;;;;;;;;;;4965155;28;20541;-78
2021/03/19 15:34:50;;;;;;;6.82;6.10;;;;;;;;;;4965348;28;20466;-77
2021/03/19 15:37:16;;;;;;;7.75;6.88;;;;;;;;;;4964511;28;20198;-77
2021/03/19 15:39:42;;;;;;;5.45;4.95;;;;;;;;;;4965608;28;20255;-76
2021/03/19 15:42:08;;;;;;;8.87;5.50;;;;;;;;;;4965483;28;20198;-77
2021/03/19 15:44:34;;;;;;;7.75;5.78;;;;;;;;;;4967199;28;20964;-79
2021/03/19 15:47:00;;;;;;;9.32;6.45;;;;;;;;;;4966122;28;20233;-77
2021/03/19 15:49:26;;;;;;;8.10;5.13;;;;;;;;;;4965915;28;20263;-76